createdAt,value
2018-09-19T00:00:07.254Z,101052.75
2018-09-19T00:02:36.290Z,101051.14
2018-09-19T00:05:05.436Z,101051.69
2018-09-19T00:07:34.639Z,101050.05
2018-09-19T00:10:04.133Z,101057.80
2018-09-19T00:12:34.110Z,101056.42
2018-09-19T00:15:03.329Z,101055.31
2018-09-19T00:17:32.341Z,101045.69
2018-09-19T00:20:01.506Z,101052.02
2018-09-19T00:22:30.534Z,101045.42
2018-09-19T00:24:59.625Z,101047.37
2018-09-19T00:27:28.762Z,101044.05
2018-09-19T00:29:57.953Z,101039.45
2018-09-19T00:32:28.050Z,101038.95
2018-09-19T00:34:57.293Z,101040.00
2018-09-19T00:37:26.330Z,101030.93
2018-09-19T00:39:55.431Z,101030.42
2018-09-19T00:42:24.443Z,101040.56
2018-09-19T00:44:53.523Z,101035.32
2018-09-19T00:47:22.560Z,101028.69
2018-09-19T00:49:52.224Z,101044.36
2018-09-19T00:52:21.295Z,101043.25
2018-09-19T00:54:51.234Z,101037.44
2018-09-19T00:57:20.275Z,101024.23
2018-09-19T00:59:49.401Z,101032.48
2018-09-19T01:02:19.528Z,101030.56
2018-09-19T01:04:48.683Z,101016.53
2018-09-19T01:07:17.745Z,101021.57
2018-09-19T01:09:46.814Z,101027.95
2018-09-19T01:12:16.956Z,101030.20
2018-09-19T01:14:46.000Z,101030.25
2018-09-19T01:17:15.152Z,101032.44
2018-09-19T01:19:44.344Z,101040.19
2018-09-19T01:22:13.425Z,101030.62
2018-09-19T01:24:42.486Z,101041.70
2018-09-19T01:27:11.533Z,101047.57
2018-09-19T01:29:40.624Z,101041.88
2018-09-19T01:32:09.694Z,101037.81
2018-09-19T01:34:38.823Z,101032.41
2018-09-19T01:37:07.872Z,101030.61
2018-09-19T01:39:37.013Z,101020.53
2018-09-19T01:42:06.130Z,101022.78
2018-09-19T01:44:35.204Z,101013.55
2018-09-19T01:47:05.274Z,101014.74
2018-09-19T01:49:34.317Z,101014.23
2018-09-19T01:52:03.380Z,101000.30
2018-09-19T01:54:32.614Z,101006.41
2018-09-19T01:57:01.833Z,101003.73
2018-09-19T01:59:30.885Z,101006.22
2018-09-19T02:01:59.992Z,101006.30
2018-09-19T02:04:29.031Z,101006.39
2018-09-19T02:06:58.058Z,101007.02
2018-09-19T02:09:27.125Z,101005.22
2018-09-19T02:11:56.193Z,100999.45
2018-09-19T02:14:25.285Z,101003.66
2018-09-19T02:16:54.361Z,101006.32
2018-09-19T02:19:23.436Z,100998.90
2018-09-19T02:21:52.713Z,100999.09
2018-09-19T02:24:22.089Z,100995.52
2018-09-19T02:26:51.163Z,100988.66
2018-09-19T02:29:20.267Z,100983.42
2018-09-19T02:31:49.342Z,100979.03
2018-09-19T02:34:18.376Z,100968.63
2018-09-19T02:36:47.425Z,100975.00
2018-09-19T03:00:38.081Z,100964.66
2018-09-19T03:03:07.168Z,100971.22
2018-09-19T03:05:36.471Z,100970.90
2018-09-19T03:08:05.553Z,100967.33
2018-09-19T03:10:34.606Z,100971.22
2018-09-19T03:24:34.529Z,100943.56
2018-09-19T03:27:03.542Z,100940.86
2018-09-19T03:29:32.641Z,100953.30
2018-09-19T03:32:01.737Z,100946.16
2018-09-19T03:34:31.314Z,100947.53
2018-09-19T03:37:00.389Z,100951.66
2018-09-19T03:39:33.523Z,100947.30
2018-09-19T03:42:02.620Z,100942.72
2018-09-19T03:44:31.619Z,100947.15
2018-09-19T03:47:00.845Z,100950.48
2018-09-19T03:49:30.324Z,100960.88
2018-09-19T03:51:59.388Z,100966.06
2018-09-19T03:54:28.791Z,100969.89
2018-09-19T03:56:57.855Z,100967.70
2018-09-19T03:59:26.979Z,100966.38
2018-09-19T04:01:56.079Z,100963.63
2018-09-19T04:04:25.297Z,100949.03
2018-09-19T04:06:54.389Z,100939.69
2018-09-19T04:09:23.562Z,100931.18
2018-09-19T04:11:52.670Z,100929.25
2018-09-19T04:14:21.783Z,100921.06
2018-09-19T04:16:50.805Z,100922.44
2018-09-19T04:19:19.866Z,100908.20
2018-09-19T04:21:52.656Z,100912.59
2018-09-19T04:24:21.795Z,100907.65
2018-09-19T04:26:50.944Z,100910.39
2018-09-19T04:29:20.019Z,100904.34
2018-09-19T04:31:49.134Z,100915.34
2018-09-19T04:34:18.253Z,100928.51
2018-09-19T04:36:47.298Z,100933.50
2018-09-19T04:39:16.323Z,100924.95
2018-09-19T04:41:45.421Z,100931.54
2018-09-19T04:44:14.539Z,100935.66
2018-09-19T04:46:43.668Z,100943.03
2018-09-19T04:49:12.745Z,100954.52
2018-09-19T04:51:41.854Z,100943.80
2018-09-19T04:54:10.997Z,100943.22
2018-09-19T04:56:40.009Z,100941.30
2018-09-19T04:59:09.165Z,100947.61
2018-09-19T05:01:38.279Z,100936.62
2018-09-19T05:04:07.323Z,100939.88
2018-09-19T05:06:36.411Z,100928.89
2018-09-19T05:09:08.443Z,100931.33
2018-09-19T05:11:37.548Z,100919.52
2018-09-19T05:14:07.034Z,100916.53
2018-09-19T05:16:36.177Z,100904.73
2018-09-19T05:19:05.747Z,100903.91
2018-09-19T05:21:34.829Z,100903.67
2018-09-19T05:24:03.913Z,100891.63
2018-09-19T05:26:32.935Z,100879.00
2018-09-19T05:29:02.031Z,100876.89
2018-09-19T05:31:31.202Z,100869.76
2018-09-19T05:34:00.248Z,100867.02
2018-09-19T05:36:29.318Z,100862.89
2018-09-19T05:39:00.325Z,100871.95
2018-09-19T05:41:29.464Z,100876.89
2018-09-19T05:43:58.518Z,100879.32
2018-09-19T05:46:27.918Z,100879.55
2018-09-19T05:48:56.993Z,100886.38
2018-09-19T05:51:26.417Z,100885.00
2018-09-19T05:53:55.617Z,100889.13
2018-09-19T05:56:24.898Z,100881.44
2018-09-19T05:58:54.311Z,100888.56
2018-09-19T06:01:23.664Z,100883.87
2018-09-19T06:03:52.739Z,100884.45
2018-09-19T06:06:22.373Z,100882.49
2018-09-19T06:08:51.518Z,100887.11
2018-09-19T06:11:20.603Z,100884.00
2018-09-19T06:13:49.748Z,100888.63
2018-09-19T06:16:18.919Z,100893.75
2018-09-19T06:18:48.106Z,100901.36
2018-09-19T06:21:17.336Z,100907.86
2018-09-19T06:23:46.596Z,100913.55
2018-09-19T06:26:20.811Z,100904.63
2018-09-19T06:28:50.131Z,100912.73
2018-09-19T06:31:19.442Z,100913.73
2018-09-19T06:33:48.547Z,100913.37
2018-09-19T06:36:17.769Z,100910.98
2018-09-19T06:38:47.190Z,100897.34
2018-09-19T06:41:16.861Z,100906.53
2018-09-19T06:43:46.533Z,100903.33
2018-09-19T06:46:15.561Z,100907.31
2018-09-19T06:48:44.757Z,100910.54
2018-09-19T06:51:13.788Z,100906.01
2018-09-19T06:53:44.519Z,100913.00
2018-09-19T06:56:13.581Z,100900.98
2018-09-19T06:58:42.936Z,100893.02
2018-09-19T07:01:12.169Z,100895.64
2018-09-19T07:03:41.328Z,100892.14
2018-09-19T07:06:10.618Z,100888.13
2018-09-19T07:08:39.967Z,100883.98
2018-09-19T07:11:09.034Z,100880.92
2018-09-19T07:13:38.464Z,100883.34
2018-09-19T07:16:07.811Z,100883.03
2018-09-19T07:18:37.422Z,100881.08
2018-09-19T07:21:06.678Z,100889.66
2018-09-19T07:23:35.987Z,100885.80
2018-09-19T07:26:05.280Z,100885.84
2018-09-19T07:28:34.571Z,100876.78
2018-09-19T07:31:03.703Z,100873.98
2018-09-19T07:33:33.711Z,100872.05
2018-09-19T07:36:02.876Z,100876.67
2018-09-19T07:38:32.208Z,100866.69
2018-09-19T07:41:01.399Z,100863.32
2018-09-19T07:43:30.603Z,100862.69
2018-09-19T07:46:00.057Z,100863.64
2018-09-19T07:48:29.562Z,100864.47
2018-09-19T07:50:58.693Z,100864.94
2018-09-19T07:53:35.075Z,100863.94
2018-09-19T07:56:04.810Z,100853.81
2018-09-19T07:58:34.186Z,100853.36
2018-09-19T08:01:04.158Z,100859.89
2018-09-19T08:03:34.028Z,100856.51
2018-09-19T08:06:05.324Z,100864.22
2018-09-19T08:08:36.404Z,100861.95
2018-09-19T08:11:05.482Z,100850.24
2018-09-19T08:13:34.630Z,100861.57
2018-09-19T08:16:05.184Z,100868.67
2018-09-19T08:18:34.331Z,100868.87
2018-09-19T08:21:03.513Z,100868.39
2018-09-19T08:23:32.597Z,100884.13
2018-09-19T08:26:01.673Z,100885.17
2018-09-19T08:28:31.544Z,100898.41
2018-09-19T08:31:01.470Z,100889.45
2018-09-19T08:33:30.600Z,100893.38
2018-09-19T08:36:00.714Z,100904.16
2018-09-19T08:38:36.381Z,100897.25
2018-09-19T08:41:05.880Z,100894.27
2018-09-19T08:43:34.983Z,100903.38
2018-09-19T08:46:04.042Z,100901.87
2018-09-19T08:48:33.182Z,100897.66
2018-09-19T08:51:02.354Z,100907.20
2018-09-19T08:53:31.369Z,100905.83
2018-09-19T08:56:00.380Z,100895.52
2018-09-19T08:58:29.560Z,100897.83
2018-09-19T09:00:59.700Z,100901.46
2018-09-19T09:03:28.776Z,100906.34
2018-09-19T09:05:57.946Z,100903.24
2018-09-19T09:08:27.047Z,100923.95
2018-09-19T09:10:56.136Z,100913.38
2018-09-19T09:13:25.471Z,100937.11
2018-09-19T09:15:54.764Z,100931.39
2018-09-19T09:18:25.369Z,100925.89
2018-09-19T09:32:46.188Z,100945.20
2018-09-19T09:35:15.578Z,100937.39
2018-09-19T09:37:44.758Z,100948.58
2018-09-19T09:40:14.584Z,100967.32
2018-09-19T09:42:43.846Z,100963.57
2018-09-19T09:45:12.890Z,100980.29
2018-09-19T09:47:42.136Z,100977.19
2018-09-19T09:50:12.194Z,100967.04
2018-09-19T09:52:41.323Z,100971.91
2018-09-19T09:55:11.051Z,100964.07
2018-09-19T09:58:01.187Z,100959.48
2018-09-19T10:00:35.524Z,100964.80
2018-09-19T10:03:04.918Z,100959.98
2018-09-19T10:05:34.192Z,100945.94
2018-09-19T10:08:03.490Z,100956.39
2018-09-19T10:10:32.624Z,100970.47
2018-09-19T10:13:01.792Z,100972.64
2018-09-19T10:15:31.003Z,100959.64
2018-09-19T10:18:00.208Z,100967.59
2018-09-19T10:20:29.519Z,100973.25
2018-09-19T10:22:58.679Z,100983.20
2018-09-19T10:25:27.913Z,100973.48
2018-09-19T10:27:57.945Z,100978.46
2018-09-19T10:30:27.278Z,100975.27
2018-09-19T10:32:56.436Z,100971.33
2018-09-19T10:35:26.471Z,100983.38
2018-09-19T10:37:55.529Z,100986.01
2018-09-19T10:40:25.585Z,101007.63
2018-09-19T10:42:54.918Z,101013.44
2018-09-19T10:45:25.854Z,101037.78
2018-09-19T10:47:55.282Z,101032.39
2018-09-19T10:50:24.439Z,101014.82
2018-09-19T10:52:53.543Z,101031.45
2018-09-19T10:55:22.794Z,101017.91
2018-09-19T10:57:52.198Z,101017.98
2018-09-19T11:00:21.634Z,101011.19
2018-09-19T11:02:50.895Z,101026.05
2018-09-19T11:05:20.161Z,101021.98
2018-09-19T11:07:50.307Z,101033.92
2018-09-19T11:10:19.718Z,101025.38
2018-09-19T11:12:48.805Z,101012.39
2018-09-19T11:15:24.991Z,101024.09
2018-09-19T11:18:00.326Z,101046.71
2018-09-19T11:20:32.715Z,101023.78
2018-09-19T11:23:02.781Z,101026.69
2018-09-19T11:25:32.130Z,101029.34
2018-09-19T11:28:01.611Z,101036.73
2018-09-19T11:30:30.798Z,101035.34
2018-09-19T11:33:00.568Z,101036.08
2018-09-19T11:35:29.740Z,101037.02
2018-09-19T11:37:59.733Z,101033.61
2018-09-19T11:40:29.133Z,101034.37
2018-09-19T11:42:58.357Z,101042.48
2018-09-19T11:45:28.803Z,101050.63
2018-09-19T11:47:58.314Z,101051.50
2018-09-19T11:50:27.672Z,101059.20
2018-09-19T11:52:56.836Z,101064.28
2018-09-19T11:55:27.176Z,101075.77
2018-09-19T11:57:57.316Z,101066.86
2018-09-19T12:00:26.723Z,101061.61
2018-09-19T12:02:56.408Z,101067.67
2018-09-19T12:05:26.619Z,101068.99
2018-09-19T12:07:56.771Z,101068.93
2018-09-19T12:10:25.970Z,101078.23
2018-09-19T12:12:55.368Z,101061.52
2018-09-19T12:15:26.712Z,101080.93
2018-09-19T12:17:56.355Z,101077.13
2018-09-19T12:20:25.820Z,101079.96
2018-09-19T12:22:55.527Z,101100.53
2018-09-19T12:25:33.098Z,101086.02
2018-09-19T12:28:11.495Z,101099.45
2018-09-19T12:30:43.850Z,101095.23
2018-09-19T12:33:17.245Z,101089.00
2018-09-19T12:35:50.192Z,101093.78
2018-09-19T12:38:19.617Z,101101.31
2018-09-19T12:40:49.835Z,101103.36
2018-09-19T12:43:19.052Z,101099.78
2018-09-19T12:45:48.808Z,101105.05
2018-09-19T12:48:18.972Z,101116.20
2018-09-19T12:50:58.924Z,101112.13
2018-09-19T12:56:17.306Z,101106.63
2018-09-19T12:58:49.138Z,101113.16
2018-09-19T13:01:25.644Z,101117.44
2018-09-19T13:03:55.960Z,101133.61
2018-09-19T13:06:26.582Z,101142.06
2018-09-19T13:08:57.767Z,101133.37
2018-09-19T13:11:28.280Z,101147.40
2018-09-19T13:14:01.751Z,101162.84
2018-09-19T13:16:35.697Z,101173.78
2018-09-19T13:21:48.150Z,101168.92
2018-09-19T13:24:18.310Z,101181.28
2018-09-19T13:26:48.596Z,101184.77
2018-09-19T13:29:18.006Z,101181.86
2018-09-19T13:31:47.585Z,101179.56
2018-09-19T13:34:17.526Z,101176.13
2018-09-19T13:36:52.349Z,101178.88
2018-09-19T13:39:21.657Z,101186.50
2018-09-19T13:41:51.070Z,101187.74
2018-09-19T13:44:21.503Z,101187.60
2018-09-19T13:46:50.820Z,101196.05
2018-09-19T13:49:36.814Z,101187.73
2018-09-19T13:52:06.075Z,101198.60
2018-09-19T13:54:35.167Z,101198.55
2018-09-19T13:57:04.902Z,101182.57
2018-09-19T13:59:34.452Z,101189.31
2018-09-19T14:02:08.027Z,101192.13
2018-09-19T14:04:37.603Z,101187.77
2018-09-19T14:07:08.248Z,101182.92
2018-09-19T14:09:38.420Z,101187.49
2018-09-19T14:12:07.834Z,101201.51
2018-09-19T14:14:36.977Z,101204.27
2018-09-19T14:17:06.813Z,101194.70
2018-09-19T14:19:36.732Z,101193.39
2018-09-19T14:22:06.389Z,101192.16
2018-09-19T14:24:39.808Z,101195.53
2018-09-19T14:27:08.971Z,101213.53
2018-09-19T14:29:38.229Z,101210.45
2018-09-19T14:32:07.650Z,101226.25
2018-09-19T14:34:37.637Z,101233.84
2018-09-19T14:37:06.375Z,101233.40
2018-09-19T14:39:35.533Z,101232.98
2018-09-19T14:42:09.095Z,101231.92
2018-09-19T14:44:38.245Z,101236.11
2018-09-19T14:47:07.270Z,101230.92
2018-09-19T14:49:36.317Z,101231.92
2018-09-19T14:52:11.855Z,101246.06
2018-09-19T14:54:42.413Z,101249.17
2018-09-19T14:57:16.782Z,101264.56
2018-09-19T14:59:45.979Z,101264.06
2018-09-19T15:02:30.270Z,101256.44
2018-09-19T15:04:59.620Z,101254.33
2018-09-19T15:07:28.957Z,101252.12
2018-09-19T15:09:58.105Z,101258.78
2018-09-19T15:12:28.178Z,101266.73
2018-09-19T15:14:58.092Z,101273.84
2018-09-19T15:17:27.594Z,101281.80
2018-09-19T15:20:09.957Z,101275.17
2018-09-19T15:22:41.152Z,101257.08
2018-09-19T15:25:23.806Z,101267.97
2018-09-19T15:28:14.232Z,101264.48
2018-09-19T15:30:44.492Z,101260.22
2018-09-19T15:33:13.809Z,101256.22
2018-09-19T15:35:45.333Z,101261.55
2018-09-19T15:38:14.535Z,101265.17
2018-09-19T15:40:44.553Z,101273.99
2018-09-19T15:43:13.866Z,101277.06
2018-09-19T15:45:43.069Z,101285.14
2018-09-19T15:48:14.318Z,101284.18
2018-09-19T15:50:43.541Z,101286.75
2018-09-19T15:53:12.836Z,101288.73
2018-09-19T15:55:42.470Z,101298.13
2018-09-19T15:58:11.602Z,101309.38
2018-09-19T16:00:41.023Z,101308.63
2018-09-19T16:03:14.774Z,101306.52
2018-09-19T16:05:45.108Z,101315.95
2018-09-19T16:08:14.253Z,101334.41
2018-09-19T16:10:43.263Z,101328.82
2018-09-19T16:13:14.497Z,101334.13
2018-09-19T16:15:43.779Z,101344.25
2018-09-19T16:18:13.419Z,101351.20
2018-09-19T16:20:56.787Z,101345.19
2018-09-19T16:24:01.036Z,101343.06
2018-09-19T16:26:34.953Z,101342.20
2018-09-19T16:32:27.696Z,101344.64
2018-09-19T16:34:56.896Z,101341.38
2018-09-19T16:37:26.148Z,101348.38
2018-09-19T16:39:55.218Z,101339.22
2018-09-19T16:42:24.245Z,101334.02
2018-09-19T16:44:55.309Z,101333.47
2018-09-19T16:47:24.978Z,101327.77
2018-09-19T16:49:54.766Z,101330.36
2018-09-19T16:52:23.870Z,101341.20
2018-09-19T16:54:52.913Z,101330.58
2018-09-19T16:57:22.263Z,101336.08
2018-09-19T16:59:51.282Z,101331.69
2018-09-19T17:02:20.349Z,101325.13
2018-09-19T17:04:49.608Z,101350.42
2018-09-19T17:07:19.949Z,101350.48
2018-09-19T17:09:49.216Z,101349.67
2018-09-19T17:12:18.457Z,101364.00
2018-09-19T17:14:47.490Z,101352.48
2018-09-19T17:17:16.713Z,101378.58
2018-09-19T17:19:45.765Z,101368.68
2018-09-19T17:22:14.798Z,101367.03
2018-09-19T17:24:43.984Z,101361.80
2018-09-19T17:27:13.216Z,101360.16
2018-09-19T17:29:42.348Z,101367.92
2018-09-19T17:32:12.446Z,101384.91
2018-09-19T17:34:41.795Z,101380.98
2018-09-19T17:37:11.031Z,101383.70
2018-09-19T17:39:40.197Z,101373.76
2018-09-19T17:42:09.740Z,101374.17
2018-09-19T17:44:38.927Z,101373.97
2018-09-19T17:47:08.448Z,101365.83
2018-09-19T17:49:51.722Z,101356.27
2018-09-19T17:52:20.872Z,101340.74
2018-09-19T17:54:50.057Z,101341.77
2018-09-19T17:57:19.911Z,101357.02
2018-09-19T17:59:49.750Z,101357.62
2018-09-19T18:02:18.916Z,101345.75
2018-09-19T18:04:48.135Z,101352.98
2018-09-19T18:07:17.861Z,101353.33
2018-09-19T18:09:47.054Z,101360.41
2018-09-19T18:12:16.926Z,101364.22
2018-09-19T18:14:46.090Z,101383.55
2018-09-19T18:17:15.270Z,101384.16
2018-09-19T18:19:44.725Z,101386.39
2018-09-19T18:22:13.929Z,101380.69
2018-09-19T18:24:49.998Z,101386.73
2018-09-19T18:27:19.890Z,101382.70
2018-09-19T18:29:48.989Z,101384.38
2018-09-19T18:32:18.152Z,101376.98
2018-09-19T18:34:47.836Z,101375.13
2018-09-19T18:37:17.920Z,101386.39
2018-09-19T18:39:47.305Z,101396.52
2018-09-19T18:42:16.658Z,101386.02
2018-09-19T18:44:45.811Z,101384.95
2018-09-19T18:47:15.163Z,101388.55
2018-09-19T18:49:44.779Z,101392.13
2018-09-19T18:52:13.875Z,101386.91
2018-09-19T18:54:43.878Z,101392.44
2018-09-19T18:57:12.882Z,101388.61
2018-09-19T18:59:41.967Z,101397.80
2018-09-19T19:02:11.199Z,101389.67
2018-09-19T19:04:41.177Z,101386.70
2018-09-19T19:07:11.582Z,101377.39
2018-09-19T19:09:40.813Z,101385.66
2018-09-19T19:12:10.082Z,101398.52
2018-09-19T19:14:39.380Z,101402.55
2018-09-19T19:17:08.596Z,101390.41
2018-09-19T19:19:37.712Z,101394.30
2018-09-19T19:22:07.015Z,101393.81
2018-09-19T19:24:37.332Z,101391.06
2018-09-19T19:27:06.572Z,101393.89
2018-09-19T19:29:36.542Z,101401.00
2018-09-19T19:32:06.299Z,101398.84
2018-09-19T19:34:35.749Z,101418.00
2018-09-19T19:37:04.805Z,101419.34
2018-09-19T19:39:33.917Z,101430.88
2018-09-19T19:42:05.638Z,101420.17
2018-09-19T19:44:38.123Z,101420.58
2018-09-19T19:47:19.096Z,101429.72
2018-09-19T19:49:50.716Z,101423.50
2018-09-19T19:52:23.804Z,101427.17
2018-09-19T19:54:56.710Z,101429.94
2018-09-19T19:57:26.191Z,101431.66
2018-09-19T19:59:55.450Z,101432.98
2018-09-19T20:02:25.537Z,101443.11
2018-09-19T20:04:58.849Z,101438.39
2018-09-19T20:07:28.003Z,101424.72
2018-09-19T20:09:57.143Z,101422.30
2018-09-19T20:12:29.304Z,101430.01
2018-09-19T20:14:58.529Z,101439.09
2018-09-19T20:17:27.685Z,101444.28
2018-09-19T20:19:57.735Z,101455.00
2018-09-19T20:22:26.845Z,101452.27
2018-09-19T20:24:55.892Z,101439.66
2018-09-19T20:27:25.078Z,101422.38
2018-09-19T20:29:54.298Z,101416.06
2018-09-19T20:32:23.368Z,101402.09
2018-09-19T20:34:52.541Z,101403.41
2018-09-19T20:37:21.665Z,101417.95
2018-09-19T20:39:50.854Z,101437.17
2018-09-19T20:42:20.934Z,101429.78
2018-09-19T20:44:51.225Z,101427.86
2018-09-19T20:47:20.321Z,101415.01
2018-09-19T20:49:49.430Z,101429.08
2018-09-19T20:52:18.589Z,101427.94
2018-09-19T20:54:47.794Z,101420.47
2018-09-19T20:57:16.938Z,101418.78
2018-09-19T20:59:46.052Z,101414.97
2018-09-19T21:02:15.278Z,101422.45
2018-09-19T21:04:45.503Z,101419.72
2018-09-19T21:07:18.396Z,101411.56
2018-09-19T21:09:47.563Z,101410.30
2018-09-19T21:12:16.765Z,101410.13
2018-09-19T21:14:45.976Z,101416.17
2018-09-19T21:17:15.204Z,101425.59
2018-09-19T21:19:44.532Z,101419.36
2018-09-19T21:22:16.747Z,101406.23
2018-09-19T21:24:45.723Z,101397.78
2018-09-19T21:27:15.304Z,101405.54
2018-09-19T21:29:44.453Z,101393.75
2018-09-19T21:32:13.574Z,101390.23
2018-09-19T21:34:42.691Z,101382.06
2018-09-19T21:37:11.753Z,101377.97
2018-09-19T21:39:40.805Z,101382.08
2018-09-19T21:42:10.357Z,101387.31
2018-09-19T21:44:40.950Z,101390.84
2018-09-19T21:47:10.196Z,101388.86
2018-09-19T21:49:39.847Z,101383.38
2018-09-19T21:52:11.172Z,101391.59
2018-09-19T21:54:40.475Z,101399.55
2018-09-19T21:57:10.825Z,101394.95
2018-09-19T21:59:47.413Z,101392.73
2018-09-19T22:02:19.806Z,101382.91
2018-09-19T22:04:49.066Z,101388.09
2018-09-19T22:07:18.257Z,101378.80
2018-09-19T22:09:47.340Z,101372.48
2018-09-19T22:12:16.404Z,101368.92
2018-09-19T22:14:45.552Z,101365.39
2018-09-19T22:17:15.158Z,101362.91
2018-09-19T22:20:00.771Z,101357.95
2018-09-19T22:22:34.860Z,101355.22
2018-09-19T22:25:20.609Z,101339.06
2018-09-19T22:28:08.802Z,101335.00
2018-09-19T22:30:52.376Z,101335.27
2018-09-19T22:33:37.680Z,101338.81
2018-09-19T22:36:21.946Z,101328.65
2018-09-19T22:39:12.078Z,101320.48
2018-09-19T22:42:07.812Z,101321.00
2018-09-19T22:44:54.653Z,101317.19
2018-09-19T22:47:24.764Z,101311.71
2018-09-19T22:50:03.449Z,101308.19
2018-09-19T22:52:50.966Z,101310.69
2018-09-19T22:55:38.694Z,101306.05
2018-09-19T22:58:25.063Z,101301.41
2018-09-19T23:01:08.754Z,101297.59
2018-09-19T23:03:51.426Z,101294.34
2018-09-19T23:06:37.029Z,101294.34
2018-09-19T23:09:23.247Z,101290.28
2018-09-19T23:12:07.747Z,101292.72
2018-09-19T23:14:36.889Z,101295.46
2018-09-19T23:17:06.972Z,101297.13
2018-09-19T23:19:37.962Z,101300.97
2018-09-19T23:22:08.758Z,101299.65
2018-09-19T23:24:37.936Z,101300.42
2018-09-19T23:27:09.337Z,101311.62
2018-09-19T23:29:38.377Z,101304.77
2018-09-19T23:32:07.445Z,101305.05
2018-09-19T23:34:36.540Z,101309.69
2018-09-19T23:37:05.665Z,101314.05
2018-09-19T23:39:34.658Z,101312.43
2018-09-19T23:42:03.756Z,101306.67
2018-09-19T23:44:32.819Z,101304.48
2018-09-19T23:47:01.841Z,101297.08
2018-09-19T23:49:31.600Z,101294.62
2018-09-19T23:52:00.711Z,101288.03
2018-09-19T23:54:30.644Z,101288.84
2018-09-19T23:56:59.708Z,101285.21
2018-09-19T23:59:29.016Z,101291.73
